Time;durP1;ratioP1;P1;durP2;ratioP2;P2;SDS_P1;SDS_P2;PMS_P1;PMS_P2;Temp;Humidity;BMP_temperature;BMP_pressure;BME280_temperature;BME280_humidity;BME280_pressure;Samples;Min_cycle;Max_cycle;Signal;HPM_P1;HPM_P2
2024/04/10 00:02:22;;;;;;;2.05;1.38;;;;;;;10.39;76.13;101076.09;5255076;27;20018;-87
2024/04/10 00:04:48;;;;;;;4.75;1.35;;;;;;;10.42;76.53;101092.69;5215168;27;20022;-87
2024/04/10 00:07:17;;;;;;;4.45;1.45;;;;;;;10.36;76.82;101087.44;5247654;27;20014;-85
2024/04/10 00:09:42;;;;;;;2.67;1.70;;;;;;;10.40;76.86;101094.44;5242401;27;20003;-87
2024/04/10 00:12:11;;;;;;;3.25;1.67;;;;;;;10.35;77.27;101087.41;5257103;27;20038;-86
2024/04/10 00:14:37;;;;;;;6.47;1.95;;;;;;;10.33;76.99;101099.66;5254002;27;20013;-85
2024/04/10 00:17:06;;;;;;;2.67;1.55;;;;;;;10.33;77.23;101099.66;5247257;27;20006;-87
2024/04/10 00:19:31;;;;;;;8.57;1.50;;;;;;;10.37;76.98;101097.03;5245569;27;20006;-85
2024/04/10 00:22:00;;;;;;;6.47;2.47;;;;;;;10.37;77.14;101109.28;5250185;27;20451;-86
2024/04/10 00:24:25;;;;;;;2.17;1.52;;;;;;;10.35;77.17;101111.91;5219382;27;20009;-85
2024/04/10 00:26:54;;;;;;;2.70;1.75;;;;;;;10.35;77.35;101117.13;5212775;27;20002;-85
2024/04/10 00:29:20;;;;;;;7.28;1.85;;;;;;;10.35;77.01;101113.59;5247673;27;20466;-87
2024/04/10 00:31:53;;;;;;;3.55;2.47;;;;;;;10.33;77.27;101115.34;5246818;27;20330;-85
2024/04/10 00:34:19;;;;;;;2.28;1.70;;;;;;;10.37;77.10;101117.97;5248291;27;20002;-84
2024/04/10 00:36:47;;;;;;;5.75;1.90;;;;;;;10.34;77.53;101119.69;5254589;27;20034;-86
2024/04/10 00:39:13;;;;;;;3.25;1.23;;;;;;;10.28;77.94;101125.81;5251093;27;20006;-86
2024/04/10 00:41:41;;;;;;;5.82;2.67;;;;;;;10.23;78.08;101104.88;5216205;27;20045;-85
2024/04/10 00:44:08;;;;;;;4.47;1.60;;;;;;;10.27;77.58;101126.66;5248720;27;20010;-85
2024/04/10 00:46:40;;;;;;;7.22;2.38;;;;;;;10.23;77.87;101125.81;5248683;27;20011;-85
2024/04/10 00:49:06;;;;;;;4.95;1.80;;;;;;;10.24;77.85;101134.53;5263611;27;20003;-84
2024/04/10 00:51:34;;;;;;;6.68;1.80;;;;;;;10.20;77.94;101138.03;5252131;27;20002;-85
2024/04/10 00:54:02;;;;;;;6.53;1.75;;;;;;;10.25;77.92;101146.75;5255077;27;19999;-84
2024/04/10 00:56:33;;;;;;;6.32;1.95;;;;;;;10.22;77.83;101147.63;5250570;27;20775;-84
2024/04/10 00:59:00;;;;;;;6.50;2.22;;;;;;;10.21;78.07;101145.88;5276157;27;20018;-85
2024/04/10 01:01:28;;;;;;;5.65;1.92;;;;;;;10.23;78.13;101151.09;5248989;27;20018;-86
2024/04/10 01:03:54;;;;;;;8.63;2.13;;;;;;;10.26;78.45;101153.72;5263272;27;20002;-86
2024/04/10 01:06:31;;;;;;;5.15;2.38;;;;;;;10.18;78.96;101169.44;5253995;27;20021;-85
2024/04/10 01:09:00;;;;;;;6.88;2.33;;;;;;;10.13;79.50;101170.28;5234253;27;20002;-86
2024/04/10 01:11:26;;;;;;;12.10;2.40;;;;;;;10.11;80.22;101159.81;5288186;27;20479;-87
2024/04/10 01:13:54;;;;;;;3.53;2.22;;;;;;;10.01;81.10;101156.31;5250541;27;20006;-85
2024/04/10 01:16:23;;;;;;;5.03;2.00;;;;;;;10.02;81.16;101165.91;5271844;27;20806;-86
2024/04/10 01:18:51;;;;;;;10.00;3.60;;;;;;;10.01;81.61;101177.25;5262009;27;20005;-86
2024/04/10 01:21:16;;;;;;;7.03;2.47;;;;;;;10.01;82.10;101172.03;5227702;27;20002;-86
2024/04/10 01:23:45;;;;;;;4.53;2.03;;;;;;;9.97;82.66;101167.63;5257562;27;20014;-88
2024/04/10 01:26:10;;;;;;;5.47;2.75;;;;;;;9.98;82.81;101174.59;5254289;27;20002;-86
2024/04/10 01:28:42;;;;;;;11.43;3.35;;;;;;;9.86;83.34;101145.84;5250608;27;20010;-86
2024/04/10 01:31:07;;;;;;;6.10;2.42;;;;;;;9.88;83.66;101176.34;5278814;27;20006;-86
2024/04/10 01:33:36;;;;;;;7.35;2.50;;;;;;;9.84;84.25;101171.09;5221569;27;20017;-87
2024/04/10 01:36:04;;;;;;;12.45;3.78;;;;;;;9.88;84.37;101191.16;5254156;27;20302;-87
2024/04/10 01:38:33;;;;;;;3.58;2.40;;;;;;;9.84;84.41;101190.28;5252591;27;20081;-86
2024/04/10 01:40:58;;;;;;;8.95;3.22;;;;;;;9.77;85.20;101184.16;5225612;27;20017;-86
2024/04/10 01:43:27;;;;;;;4.40;2.83;;;;;;;9.77;85.29;101185.91;5246938;27;20434;-87
2024/04/10 01:45:52;;;;;;;3.03;2.65;;;;;;;9.68;85.87;101189.34;5256207;27;20081;-85
2024/04/10 01:48:21;;;;;;;9.95;3.17;;;;;;;9.70;86.18;101192.84;5253010;27;20507;-86
2024/04/10 01:50:46;;;;;;;10.05;3.70;;;;;;;9.67;85.95;101191.97;5250680;27;20002;-86
2024/04/10 01:53:15;;;;;;;6.80;2.58;;;;;;;9.71;85.99;101197.22;5246453;27;20568;-86
2024/04/10 01:55:40;;;;;;;8.38;2.80;;;;;;;9.66;86.80;101200.66;5259385;27;20370;-85
2024/04/10 01:58:08;;;;;;;7.68;2.53;;;;;;;9.68;86.70;101212.00;5277214;27;20006;-85
2024/04/10 02:00:40;;;;;;;7.70;2.63;;;;;;;9.69;86.90;101209.41;5248809;27;20434;-85
2024/04/10 02:03:08;;;;;;;9.32;3.00;;;;;;;9.63;87.28;101208.50;5231483;27;20021;-85
2024/04/10 02:05:34;;;;;;;15.40;3.75;;;;;;;9.64;87.09;101221.56;5222107;27;20002;-85
2024/04/10 02:08:09;;;;;;;3.75;1.92;;;;;;;9.62;87.34;101223.34;5252365;27;20006;-85
2024/04/10 02:10:34;;;;;;;5.35;2.38;;;;;;;9.66;87.84;101227.69;5248178;27;20020;-85
2024/04/10 02:13:03;;;;;;;4.85;3.40;;;;;;;9.63;88.08;101226.81;5251864;27;20006;-84
2024/04/10 02:15:28;;;;;;;9.27;2.30;;;;;;;9.65;88.01;101236.41;5251951;27;20014;-86
2024/04/10 02:17:56;;;;;;;6.15;2.25;;;;;;;9.64;88.45;101242.50;5279254;27;20017;-84
2024/04/10 02:20:22;;;;;;;8.80;2.92;;;;;;;9.66;88.26;101240.78;5239989;27;20018;-85
2024/04/10 02:22:50;;;;;;;9.77;2.25;;;;;;;9.64;88.55;101239.88;5260100;27;20034;-84
2024/04/10 02:25:16;;;;;;;5.70;2.35;;;;;;;9.67;88.39;101247.72;5234518;27;20002;-84
2024/04/10 02:27:45;;;;;;;4.78;2.55;;;;;;;9.66;88.25;101245.09;5248267;27;20003;-86
2024/04/10 02:30:13;;;;;;;8.93;2.08;;;;;;;9.72;88.05;101253.84;5258882;27;20474;-84
2024/04/10 02:32:42;;;;;;;8.43;2.28;;;;;;;9.77;87.63;101259.97;5251690;27;20057;-85
2024/04/10 02:35:07;;;;;;;7.65;2.42;;;;;;;9.83;87.65;101268.72;5279823;27;20009;-86
2024/04/10 02:37:36;;;;;;;15.75;3.75;;;;;;;9.84;87.91;101273.06;5222636;27;20010;-85
2024/04/10 02:40:03;;;;;;;7.65;2.47;;;;;;;9.85;87.53;101275.69;5225093;27;20366;-83
2024/04/10 02:42:40;;;;;;;10.80;2.78;;;;;;;9.81;88.02;101283.53;5252266;27;20021;-86
2024/04/10 02:45:09;;;;;;;6.70;2.53;;;;;;;9.79;87.84;101275.69;5222909;27;20007;-84
2024/04/10 02:47:39;;;;;;;5.32;2.53;;;;;;;9.83;88.25;101290.53;5263455;27;20006;-83
2024/04/10 02:50:05;;;;;;;8.05;2.47;;;;;;;9.83;87.67;101303.59;5259943;27;20021;-85
2024/04/10 02:52:33;;;;;;;7.82;2.50;;;;;;;9.74;88.28;101311.41;5280500;27;20006;-84
2024/04/10 02:54:59;;;;;;;8.50;2.70;;;;;;;9.80;88.40;101313.16;5223446;27;20017;-84
2024/04/10 02:57:27;;;;;;;12.68;2.70;;;;;;;9.80;87.92;101315.78;5252283;27;20006;-85
2024/04/10 02:59:53;;;;;;;6.38;2.17;;;;;;;9.70;88.52;101313.13;5281300;27;20025;-85
2024/04/10 03:02:22;;;;;;;12.50;2.40;;;;;;;9.72;88.73;101318.34;5249473;27;20010;-84
2024/04/10 03:04:47;;;;;;;9.93;2.38;;;;;;;9.70;88.83;101327.91;5258433;27;20445;-85
2024/04/10 03:07:16;;;;;;;7.30;2.50;;;;;;;9.72;88.87;101328.81;5246041;27;20014;-84
2024/04/10 03:09:42;;;;;;;10.88;2.70;;;;;;;9.63;89.39;101321.78;5261746;27;20070;-86
2024/04/10 03:12:11;;;;;;;7.95;3.35;;;;;;;9.58;89.91;101321.75;5217242;27;20018;-85
2024/04/10 03:14:39;;;;;;;6.07;2.17;;;;;;;9.61;89.85;101333.97;5259465;27;21224;-84
2024/04/10 03:17:08;;;;;;;8.43;3.05;;;;;;;9.56;90.13;101335.69;5226647;27;20002;-85
2024/04/10 03:19:34;;;;;;;8.13;2.70;;;;;;;9.52;90.64;101332.19;5251069;27;20007;-84
2024/04/10 03:22:02;;;;;;;12.18;2.22;;;;;;;9.52;90.50;101337.41;5252578;27;20006;-84
2024/04/10 03:24:27;;;;;;;10.00;2.85;;;;;;;9.47;91.03;101336.50;5227692;27;20009;-83
2024/04/10 03:26:56;;;;;;;8.00;2.78;;;;;;;9.44;90.93;101337.34;5245460;27;20023;-85
2024/04/10 03:29:21;;;;;;;9.48;2.80;;;;;;;9.46;91.51;101353.03;5224024;27;20010;-84
2024/04/10 03:31:50;;;;;;;9.75;3.10;;;;;;;9.48;91.24;101356.53;5256308;27;20076;-84
2024/04/10 03:34:15;;;;;;;4.43;2.15;;;;;;;9.54;91.59;101360.94;5243098;27;20006;-84
2024/04/10 03:36:43;;;;;;;13.15;2.72;;;;;;;9.44;91.47;101360.88;5269787;27;20046;-85
2024/04/10 03:39:09;;;;;;;8.07;2.90;;;;;;;9.48;91.84;101367.00;5256337;27;20002;-85
2024/04/10 03:41:38;;;;;;;6.53;2.25;;;;;;;9.53;91.22;101375.75;5259430;27;20013;-84
2024/04/10 03:44:07;;;;;;;5.18;1.75;;;;;;;9.54;91.06;101374.91;5249509;27;20029;-83
2024/04/10 03:46:35;;;;;;;9.70;2.90;;;;;;;9.51;91.23;101390.53;5267060;27;20017;-84
2024/04/10 03:49:04;;;;;;;7.53;2.05;;;;;;;9.57;91.04;101380.13;5233638;27;20006;-84
2024/04/10 03:51:36;;;;;;;4.72;1.80;;;;;;;9.61;90.66;101391.50;5234685;27;20088;-85
2024/04/10 03:54:02;;;;;;;9.10;3.65;;;;;;;9.62;90.73;101390.63;5254732;27;20761;-85
2024/04/10 03:56:30;;;;;;;6.93;3.65;;;;;;;9.59;90.61;101395.81;5245370;27;20007;-83
2024/04/10 03:58:56;;;;;;;6.05;2.60;;;;;;;9.53;90.88;101388.81;5242744;27;20006;-83
2024/04/10 04:01:24;;;;;;;7.45;2.88;;;;;;;9.52;90.68;101394.91;5221563;27;20022;-83
2024/04/10 04:03:50;;;;;;;5.40;2.28;;;;;;;9.58;90.63;101401.91;5245489;27;20009;-84
2024/04/10 04:06:19;;;;;;;8.73;2.42;;;;;;;9.61;90.81;101412.41;5252021;27;20025;-84
2024/04/10 04:08:48;;;;;;;16.77;6.50;;;;;;;9.53;91.03;101417.56;5235620;27;20026;-84
2024/04/10 04:11:17;;;;;;;7.50;3.15;;;;;;;9.57;91.33;101416.72;5277067;27;20471;-86
2024/04/10 04:13:44;;;;;;;9.95;2.70;;;;;;;9.54;92.32;101429.78;5262707;27;20007;-86
2024/04/10 04:16:12;;;;;;;9.32;3.15;;;;;;;9.56;91.95;101435.88;5264312;27;20343;-85
2024/04/10 04:18:38;;;;;;;9.27;2.88;;;;;;;9.58;91.78;101447.22;5257753;27;20014;-84
2024/04/10 04:21:09;;;;;;;7.25;3.78;;;;;;;9.56;91.53;101456.78;5283912;27;20459;-84
2024/04/10 04:23:36;;;;;;;9.07;2.75;;;;;;;9.60;91.41;101466.41;5246135;27;20021;-84
2024/04/10 04:26:06;;;;;;;7.63;3.22;;;;;;;9.55;91.25;101475.06;5260720;27;20020;-85
2024/04/10 04:28:31;;;;;;;14.30;3.13;;;;;;;9.53;91.83;101476.78;5255184;27;20010;-84
2024/04/10 04:31:02;;;;;;;7.60;3.08;;;;;;;9.54;92.11;101484.69;5265648;27;20016;-85
2024/04/10 04:33:48;;;;;;;8.07;2.45;;;;;;;9.58;91.71;101488.16;5258690;27;20018;-84
2024/04/10 04:36:17;;;;;;;13.18;4.18;;;;;;;9.57;92.08;101502.97;5266047;27;20011;-85
2024/04/10 04:38:42;;;;;;;12.73;3.80;;;;;;;9.49;92.60;101498.53;5245288;27;20074;-85
2024/04/10 04:41:11;;;;;;;12.93;3.00;;;;;;;9.47;92.47;101503.75;5254471;27;20442;-85
2024/04/10 04:43:36;;;;;;;5.25;2.42;;;;;;;9.49;92.47;101502.06;5248889;27;20137;-85
2024/04/10 04:46:07;;;;;;;11.60;2.55;;;;;;;9.48;92.19;101513.34;5202899;27;20059;-85
2024/04/10 04:48:33;;;;;;;5.32;2.35;;;;;;;9.41;92.96;101514.16;5246067;27;20007;-84
2024/04/10 04:51:07;;;;;;;5.55;2.28;;;;;;;9.27;93.21;101516.66;5281573;27;20010;-85
2024/04/10 04:53:33;;;;;;;8.80;4.65;;;;;;;9.30;93.50;101524.50;5252178;27;20061;-84
2024/04/10 04:56:01;;;;;;;13.60;2.70;;;;;;;9.39;93.44;101542.88;5256416;27;20327;-85
2024/04/10 04:58:30;;;;;;;8.95;3.10;;;;;;;9.43;92.91;101544.66;5257179;27;20017;-85
2024/04/10 05:00:57;;;;;;;5.68;2.25;;;;;;;9.44;92.80;101562.09;5258114;27;20010;-83
2024/04/10 05:06:13;;;;;;;7.38;2.55;;;;;;;9.35;93.38;101559.41;5223740;27;20010;-86
2024/04/10 05:08:43;;;;;;;11.70;3.42;;;;;;;9.32;93.72;101559.38;5247751;27;20073;-84
2024/04/10 05:11:12;;;;;;;10.15;3.30;;;;;;;9.31;93.38;101564.56;5254028;27;20061;-84
2024/04/10 05:13:40;;;;;;;10.52;2.40;;;;;;;9.36;93.45;101571.59;5265313;27;20002;-84
2024/04/10 05:16:16;;;;;;;6.80;2.63;;;;;;;9.46;92.75;101582.16;5199901;27;20003;-87
2024/04/10 05:18:41;;;;;;;12.07;2.45;;;;;;;9.49;92.27;101576.94;5196695;27;19999;-85
2024/04/10 05:21:10;;;;;;;5.72;1.90;;;;;;;9.50;91.87;101584.81;5184987;27;20025;-86
2024/04/10 05:23:35;;;;;;;10.38;2.83;;;;;;;9.57;91.28;101586.63;5191631;27;20015;-87
2024/04/10 05:26:07;;;;;;;5.63;3.03;;;;;;;9.59;90.88;101595.38;5210767;27;20015;-87
2024/04/10 05:28:33;;;;;;;5.25;2.45;;;;;;;9.59;91.00;101591.88;5189672;27;20420;-86
2024/04/10 05:31:10;;;;;;;9.32;2.65;;;;;;;9.56;91.18;101597.06;5191756;27;20006;-87
2024/04/10 05:33:39;;;;;;;9.20;3.08;;;;;;;9.52;91.41;101601.38;5217254;27;20017;-86
2024/04/10 05:36:12;;;;;;;9.55;3.17;;;;;;;9.54;91.94;101606.63;5217475;27;20004;-85
2024/04/10 05:38:38;;;;;;;5.50;3.60;;;;;;;9.46;92.07;101616.13;5219597;27;20015;-88
2024/04/10 05:41:06;;;;;;;8.88;2.60;;;;;;;9.49;92.42;101629.22;5217923;27;20017;-86
2024/04/10 05:43:32;;;;;;;11.10;3.88;;;;;;;9.54;92.52;101638.00;5222047;27;20108;-85
2024/04/10 05:46:01;;;;;;;10.40;3.20;;;;;;;9.60;91.95;101635.47;5193740;27;20003;-90
2024/04/10 05:51:05;;;;;;;11.63;5.00;;;;;;;9.72;91.08;101637.31;5290938;22;20026;-83
2024/04/10 05:53:34;;;;;;;5.85;2.95;;;;;;;9.68;91.48;101646.88;5283218;27;20088;-83
2024/04/10 05:56:07;;;;;;;6.32;2.55;;;;;;;9.72;91.36;101650.41;5258309;27;20007;-88
2024/04/10 05:58:35;;;;;;;8.90;3.10;;;;;;;9.75;91.12;101647.81;5274059;27;20021;-87
2024/04/10 06:01:13;;;;;;;8.32;3.00;;;;;;;9.90;90.53;101663.66;5277671;27;20046;-91
2024/04/10 06:03:39;;;;;;;8.65;2.45;;;;;;;10.03;89.80;101663.78;5282636;27;20012;-85
2024/04/10 06:09:15;;;;;;;10.82;2.95;;;;;;;10.16;88.83;101670.03;5256839;27;20010;-85
2024/04/10 06:11:44;;;;;;;9.00;2.58;;;;;;;10.06;88.21;101666.41;5270728;22;20003;-87
2024/04/10 06:14:10;;;;;;;6.38;2.65;;;;;;;10.16;87.97;101672.63;5200038;27;20003;-84
2024/04/10 06:16:39;;;;;;;11.23;2.85;;;;;;;10.26;87.78;101669.25;5222794;27;20006;-86
2024/04/10 06:19:10;;;;;;;7.88;3.35;;;;;;;10.20;87.30;101672.66;5225247;27;20003;-86
2024/04/10 06:21:41;;;;;;;7.97;2.92;;;;;;;10.37;86.50;101678.06;5198255;27;20003;-86
2024/04/10 06:24:07;;;;;;;6.40;2.03;;;;;;;10.40;85.67;101679.84;5223442;27;20007;-86
2024/04/10 06:26:36;;;;;;;6.15;1.80;;;;;;;10.57;85.29;101688.72;5198407;27;20003;-86
2024/04/10 06:29:04;;;;;;;8.80;3.20;;;;;;;10.59;85.10;101686.09;5182250;27;20022;-85
2024/04/10 06:31:33;;;;;;;6.18;2.03;;;;;;;10.62;85.19;101698.34;5225458;27;20011;-86
2024/04/10 06:33:59;;;;;;;6.43;2.20;;;;;;;10.61;85.13;101697.44;5217211;27;20006;-87
2024/04/10 06:36:31;;;;;;;4.97;2.38;;;;;;;10.53;85.35;101700.03;5195330;27;20054;-87
2024/04/10 06:39:00;;;;;;;7.68;1.90;;;;;;;10.43;85.68;101711.28;5218374;27;20003;-86
2024/04/10 06:41:29;;;;;;;8.23;2.80;;;;;;;10.47;85.96;101707.84;5254457;27;20003;-86
2024/04/10 06:43:57;;;;;;;8.75;2.05;;;;;;;10.46;85.87;101721.78;5193505;27;20013;-87
2024/04/10 06:46:28;;;;;;;6.72;2.13;;;;;;;10.41;86.47;101729.56;5220214;27;20023;-87
2024/04/10 06:48:54;;;;;;;12.32;2.90;;;;;;;10.38;87.56;101734.78;5214915;27;20011;-85
2024/04/10 06:51:22;;;;;;;6.38;1.67;;;;;;;10.50;87.42;101735.78;5233501;27;20013;-87
2024/04/10 06:53:50;;;;;;;9.13;2.45;;;;;;;10.67;86.27;101733.31;5220988;27;20014;-87
2024/04/10 06:56:21;;;;;;;7.93;1.80;;;;;;;10.73;85.19;101738.59;5208138;27;20008;-86
2024/04/10 06:58:47;;;;;;;2.65;1.48;;;;;;;11.33;82.86;101740.72;5158202;27;20011;-84
2024/04/10 07:01:20;;;;;;;7.60;1.75;;;;;;;11.78;79.84;101740.94;5170993;27;20069;-87
2024/04/10 07:03:56;;;;;;;3.38;1.42;;;;;;;11.37;80.86;101743.38;5167339;27;20015;-87
2024/04/10 07:06:38;;;;;;;7.70;1.70;;;;;;;11.09;82.43;101763.28;5168743;27;20067;-88
2024/04/10 07:09:26;;;;;;;7.78;1.75;;;;;;;11.05;82.91;101770.25;5189865;27;20016;-87
2024/04/10 07:11:58;;;;;;;7.55;2.13;;;;;;;11.10;83.76;101765.03;5194854;27;20088;-88
2024/04/10 07:14:34;;;;;;;4.95;1.80;;;;;;;11.14;82.60;101771.19;5223304;27;20044;-88
2024/04/10 07:17:31;;;;;;;4.65;1.67;;;;;;;10.90;83.63;101776.25;5208917;27;20479;-88
2024/04/10 07:20:09;;;;;;;6.65;2.05;;;;;;;11.03;83.85;101781.56;5228734;27;20018;-87
2024/04/10 07:22:49;;;;;;;8.07;2.17;;;;;;;11.19;81.90;101786.06;5177698;27;20348;-87
2024/04/10 07:25:37;;;;;;;8.43;2.30;;;;;;;11.03;82.89;101787.72;5201256;27;20016;-87
2024/04/10 07:28:15;;;;;;;8.63;2.33;;;;;;;11.32;82.29;101799.28;5190393;27;20466;-88
2024/04/10 07:30:58;;;;;;;7.85;1.80;;;;;;;11.46;81.34;101791.47;5204853;27;20013;-86
2024/04/10 07:33:33;;;;;;;8.00;1.90;;;;;;;11.52;80.80;101805.47;5186427;27;20015;-88
2024/04/10 07:36:17;;;;;;;4.30;1.48;;;;;;;12.44;77.21;101812.00;5195234;27;20251;-87
2024/04/10 07:38:53;;;;;;;9.20;1.98;;;;;;;12.12;77.68;101815.41;5214684;27;20452;-87
2024/04/10 07:42:11;;;;;;;6.30;2.83;;;;;;;11.92;78.86;101815.31;5120133;27;20448;-86
2024/04/10 07:44:43;;;;;;;10.15;2.20;;;;;;;12.88;74.03;101826.03;5132932;27;20266;-87
2024/04/10 07:47:15;;;;;;;7.72;2.03;;;;;;;12.41;75.07;101827.72;5180859;27;20022;-88
2024/04/10 07:49:46;;;;;;;3.50;1.52;;;;;;;12.58;74.69;101831.28;5215167;27;20884;-88
2024/04/10 07:52:15;;;;;;;7.47;1.95;;;;;;;12.55;74.08;101830.41;5184582;27;20071;-90
2024/04/10 07:55:00;;;;;;;8.00;2.05;;;;;;;15.29;64.47;101829.38;5178022;27;20003;-89
2024/04/10 07:57:30;;;;;;;6.22;1.65;;;;;;;15.37;63.48;101824.94;5219997;27;20044;-86
2024/04/10 07:59:56;;;;;;;1.92;1.20;;;;;;;14.41;64.68;101824.78;5211952;27;20087;-87
2024/04/10 08:02:27;;;;;;;4.47;2.13;;;;;;;15.16;62.59;101824.25;5183275;27;20060;-87
2024/04/10 08:04:57;;;;;;;7.75;2.75;;;;;;;16.49;58.83;101827.97;5227314;27;20008;-88
2024/04/10 08:08:03;;;;;;;5.32;2.10;;;;;;;14.77;62.05;101834.25;5225427;27;20519;-88
2024/04/10 08:10:30;;;;;;;5.32;1.90;;;;;;;16.38;58.76;101843.94;5232596;27;20008;-87
2024/04/10 08:13:03;;;;;;;6.25;1.70;;;;;;;17.56;55.64;101835.88;5215732;27;20848;-85
2024/04/10 08:17:38;;;;;;;4.85;1.40;;;;;;;16.77;57.04;101842.53;5248422;27;20488;-89
2024/04/10 08:20:05;;;;;;;4.47;1.20;;;;;;;15.71;57.57;101851.81;5175913;27;20007;-89
2024/04/10 08:22:34;;;;;;;5.43;0.85;;;;;;;14.58;60.94;101853.66;5259240;27;20007;-88
2024/04/10 08:25:01;;;;;;;3.78;2.30;;;;;;;13.70;63.32;101871.59;5225436;27;20007;-87
2024/04/10 08:27:30;;;;;;;4.18;1.70;;;;;;;12.99;66.83;101883.91;5206897;27;20003;-89
2024/04/10 08:29:55;;;;;;;5.00;1.60;;;;;;;12.93;68.33;101887.38;5199561;27;20007;-87
2024/04/10 08:32:27;;;;;;;6.80;1.30;;;;;;;12.86;68.96;101883.00;5213025;27;20018;-88
2024/04/10 08:34:53;;;;;;;3.88;1.98;;;;;;;13.86;66.12;101892.63;5229275;27;20062;-88
2024/04/10 08:37:24;;;;;;;4.07;1.10;;;;;;;15.45;60.35;101885.50;5214675;27;20019;-87
2024/04/10 08:39:50;;;;;;;6.68;1.13;;;;;;;17.16;55.46;101888.63;5188482;27;20022;-87
2024/04/10 08:42:23;;;;;;;8.85;1.90;;;;;;;16.80;54.15;101898.84;5220902;27;20003;-89
2024/04/10 08:44:51;;;;;;;2.40;1.17;;;;;;;17.71;52.18;101909.72;5197387;27;20019;-86
2024/04/10 08:47:28;;;;;;;5.80;1.58;;;;;;;17.45;53.33;101915.50;5193865;27;20018;-89
2024/04/10 08:49:56;;;;;;;3.28;1.30;;;;;;;17.86;52.25;101911.25;5228772;27;20362;-88
2024/04/10 08:52:26;;;;;;;3.03;1.25;;;;;;;16.78;53.04;101919.19;5235504;27;19999;-87
2024/04/10 08:54:54;;;;;;;3.40;1.20;;;;;;;15.55;56.30;101918.84;5199089;27;19996;-88
2024/04/10 08:57:20;;;;;;;13.13;2.75;;;;;;;14.74;58.26;101937.03;5194589;27;20003;-86
2024/04/10 08:59:49;;;;;;;4.97;1.27;;;;;;;13.80;61.67;101938.22;5193884;27;20010;-87
2024/04/10 09:02:15;;;;;;;8.85;1.40;;;;;;;13.36;63.68;101933.84;5214071;27;20082;-86
2024/04/10 09:04:47;;;;;;;5.82;1.73;;;;;;;13.29;64.84;101943.50;5203245;27;20448;-87
2024/04/10 09:07:18;;;;;;;3.60;1.33;;;;;;;14.09;62.46;101941.69;5206627;27;20021;-88
2024/04/10 09:09:50;;;;;;;3.42;1.25;;;;;;;15.60;58.85;101942.56;5256133;27;20019;-86
2024/04/10 09:12:24;;;;;;;4.45;1.55;;;;;;;16.41;55.81;101942.59;5228037;27;20011;-87
2024/04/10 09:14:53;;;;;;;5.18;1.58;;;;;;;15.85;56.61;101949.41;5252589;27;20007;-86
2024/04/10 09:17:18;;;;;;;6.97;2.63;;;;;;;14.39;59.16;101945.94;5217336;27;20033;-88
2024/04/10 09:19:50;;;;;;;1.75;1.33;;;;;;;15.04;58.14;101949.16;5194696;27;20007;-87
2024/04/10 09:22:28;;;;;;;2.05;1.13;;;;;;;15.51;56.28;101946.16;5252658;27;20076;-85
2024/04/10 09:24:57;;;;;;;4.93;2.40;;;;;;;16.49;53.79;101944.25;5178241;27;20020;-88
2024/04/10 09:27:25;;;;;;;3.55;1.02;;;;;;;17.73;51.23;101939.72;5208125;27;19999;-86
2024/04/10 09:30:03;;;;;;;5.60;1.77;;;;;;;18.30;49.48;101940.41;5228798;27;20017;-86
2024/04/10 09:32:33;;;;;;;6.03;1.35;;;;;;;18.84;48.97;101940.13;5256228;27;20011;-86
2024/04/10 09:35:05;;;;;;;2.22;0.95;;;;;;;19.04;47.45;101948.56;5220004;27;20032;-86
2024/04/10 09:37:37;;;;;;;3.05;0.82;;;;;;;18.82;47.49;101957.84;5195479;27;20383;-86
2024/04/10 09:40:07;;;;;;;5.30;1.52;;;;;;;17.51;49.33;101957.75;5240020;27;20003;-87
2024/04/10 09:42:38;;;;;;;5.57;0.80;;;;;;;15.30;53.96;101963.03;5224201;27;20328;-87
2024/04/10 09:45:15;;;;;;;3.28;0.95;;;;;;;15.12;55.21;101969.31;5215804;27;20003;-87
2024/04/10 09:47:44;;;;;;;4.80;1.25;;;;;;;16.98;51.80;101981.53;5249726;27;20034;-87
2024/04/10 09:50:22;;;;;;;4.90;0.85;;;;;;;18.31;47.28;101973.97;5201750;27;19999;-86
2024/04/10 09:52:55;;;;;;;3.25;1.02;;;;;;;18.91;45.75;101970.06;5216697;27;20007;-85
2024/04/10 09:55:26;;;;;;;4.03;1.25;;;;;;;19.42;44.63;101971.50;5191775;27;20007;-87
2024/04/10 09:57:56;;;;;;;2.80;1.10;;;;;;;18.57;45.71;101972.56;5221882;27;20035;-85
2024/04/10 10:00:24;;;;;;;3.47;1.02;;;;;;;17.35;47.40;101973.91;5223638;27;20007;-86
2024/04/10 10:03:03;;;;;;;4.05;1.48;;;;;;;17.56;46.38;101973.56;5222180;27;20021;-86
2024/04/10 10:05:31;;;;;;;2.08;1.30;;;;;;;17.16;47.53;101964.50;5224213;27;20003;-86
2024/04/10 10:08:18;;;;;;;3.22;1.10;;;;;;;16.70;49.15;101974.81;5214836;27;20018;-86
2024/04/10 10:10:50;;;;;;;6.45;1.40;;;;;;;16.28;50.32;101970.94;5211965;27;20014;-85
2024/04/10 10:13:32;;;;;;;4.65;1.52;;;;;;;15.81;50.87;101973.19;5246664;27;20011;-86
2024/04/10 10:16:05;;;;;;;4.00;0.80;;;;;;;15.34;51.93;101975.31;5236060;27;20010;-87
2024/04/10 10:21:23;;;;;;;;;;;;;;;14.70;54.22;101983.63;5219013;27;20007;-86
2024/04/10 10:24:05;;;;;;;6.00;1.50;;;;;;;14.67;54.25;101985.41;5215184;27;20296;-87
2024/04/10 10:26:40;;;;;;;3.42;1.35;;;;;;;16.60;51.10;101980.25;5231747;27;20021;-86
2024/04/10 10:29:08;;;;;;;3.38;1.02;;;;;;;17.53;48.06;101977.13;5207014;27;20469;-87
2024/04/10 10:31:38;;;;;;;1.65;1.52;;;;;;;17.75;48.40;101984.72;5214417;27;20031;-85
2024/04/10 10:34:12;;;;;;;1.55;0.75;;;;;;;19.84;43.78;101983.75;5218497;27;20447;-87
2024/04/10 10:36:40;;;;;;;2.83;0.93;;;;;;;19.18;43.63;101995.09;5212547;27;20012;-86
2024/04/10 10:39:10;;;;;;;5.00;1.08;;;;;;;19.16;43.26;101986.31;5188373;27;20003;-85
2024/04/10 10:41:46;;;;;;;5.70;2.03;;;;;;;19.41;42.53;101990.13;5212259;27;20003;-86
2024/04/10 10:44:24;;;;;;;5.13;2.78;;;;;;;18.85;42.74;101986.97;5215500;27;20003;-87
2024/04/10 10:46:56;;;;;;;4.90;1.10;;;;;;;17.95;44.50;102011.75;5218595;27;20018;-87
2024/04/10 10:49:27;;;;;;;4.75;1.33;;;;;;;17.76;44.96;102002.34;5221057;27;20014;-87
2024/04/10 10:52:00;;;;;;;9.27;2.08;;;;;;;18.89;42.13;102002.81;5218975;27;20794;-86
2024/04/10 10:54:27;;;;;;;4.03;0.93;;;;;;;18.94;42.96;101995.66;5217690;27;20007;-86
2024/04/10 10:56:55;;;;;;;2.05;0.73;;;;;;;19.70;42.06;101992.06;5185867;27;20008;-85
2024/04/10 10:59:25;;;;;;;2.33;0.60;;;;;;;20.39;40.17;101993.75;5222709;27;20003;-85
2024/04/10 11:02:00;;;;;;;1.20;0.95;;;;;;;21.03;39.25;101987.44;5188899;27;20003;-87
2024/04/10 11:04:31;;;;;;;2.67;0.90;;;;;;;21.92;36.85;101989.81;5229267;27;20068;-88
2024/04/10 11:07:09;;;;;;;4.20;0.70;;;;;;;21.68;37.66;101988.91;5188284;27;20019;-86
2024/04/10 11:09:37;;;;;;;7.70;1.20;;;;;;;21.50;37.82;101995.69;5245083;27;20355;-87
2024/04/10 11:12:07;;;;;;;1.95;0.43;;;;;;;20.15;39.84;102001.53;5180973;27;20013;-85
2024/04/10 11:14:37;;;;;;;2.15;0.77;;;;;;;19.74;40.00;101999.03;5209923;27;20472;-87
2024/04/10 11:17:21;;;;;;;3.53;1.05;;;;;;;18.33;42.00;102010.16;5219132;27;20285;-88
2024/04/10 11:19:47;;;;;;;4.03;1.15;;;;;;;16.98;45.05;102023.84;5210744;27;20019;-86
2024/04/10 11:22:22;;;;;;;4.72;0.80;;;;;;;17.74;43.42;102025.34;5155853;27;20048;-88
2024/04/10 11:24:50;;;;;;;2.75;1.10;;;;;;;17.22;43.85;102022.59;5209454;27;20003;-86
2024/04/10 11:27:19;;;;;;;1.50;0.85;;;;;;;16.72;44.77;102016.22;5239816;27;20345;-86
2024/04/10 11:29:51;;;;;;;3.72;1.10;;;;;;;16.27;45.69;102022.91;5180057;27;20000;-86
2024/04/10 11:32:25;;;;;;;5.47;0.93;;;;;;;18.49;41.57;102021.31;5185490;27;20017;-87
2024/04/10 11:34:53;;;;;;;2.67;0.88;;;;;;;20.65;38.55;102025.81;5207578;27;20237;-86
2024/04/10 11:37:22;;;;;;;5.38;1.02;;;;;;;19.46;40.70;102022.75;5183589;27;20000;-87
2024/04/10 11:39:53;;;;;;;2.55;0.85;;;;;;;19.33;41.41;102031.03;5203863;27;20030;-87
2024/04/10 11:42:21;;;;;;;2.17;0.70;;;;;;;19.71;40.24;102033.66;5182740;27;20020;-87
2024/04/10 11:44:52;;;;;;;4.05;0.77;;;;;;;20.41;38.12;102026.53;5205654;27;20085;-86
2024/04/10 11:47:23;;;;;;;6.15;1.67;;;;;;;20.56;38.00;102033.16;5211122;27;20230;-86
2024/04/10 11:49:54;;;;;;;4.82;0.63;;;;;;;21.14;37.37;102031.44;5206417;27;20003;-87
2024/04/10 11:52:23;;;;;;;4.63;1.13;;;;;;;21.24;37.88;102036.50;5235494;27;20008;-85
2024/04/10 11:54:56;;;;;;;1.70;1.00;;;;;;;20.21;38.70;102043.00;5205338;27;20083;-86